sensor_id;sensor_type;location;lat;lon;timestamp;temperature;humidity
64869;DHT22;51349;52.424;10.840;2024-02-15T00:04:50;10.10;99.90
64869;DHT22;51349;52.424;10.840;2024-02-15T00:09:50;10.20;99.90
64869;DHT22;51349;52.424;10.840;2024-02-15T00:14:51;10.20;99.90
64869;DHT22;51349;52.424;10.840;2024-02-15T00:19:52;10.20;99.90
64869;DHT22;51349;52.424;10.840;2024-02-15T00:24:53;10.20;99.90
64869;DHT22;51349;52.424;10.840;2024-02-15T00:29:53;10.20;99.90
64869;DHT22;51349;52.424;10.840;2024-02-15T00:34:54;10.30;99.90
64869;DHT22;51349;52.424;10.840;2024-02-15T00:39:55;10.40;99.90
64869;DHT22;51349;52.424;10.840;2024-02-15T00:44:56;10.40;99.90
64869;DHT22;51349;52.424;10.840;2024-02-15T00:49:56;10.40;99.90
64869;DHT22;51349;52.424;10.840;2024-02-15T00:54:57;10.40;99.90
64869;DHT22;51349;52.424;10.840;2024-02-15T00:59:58;10.50;99.90
64869;DHT22;51349;52.424;10.840;2024-02-15T01:04:59;10.50;99.90
64869;DHT22;51349;52.424;10.840;2024-02-15T01:10:00;10.50;99.90
64869;DHT22;51349;52.424;10.840;2024-02-15T01:15:01;10.50;99.90
64869;DHT22;51349;52.424;10.840;2024-02-15T01:20:02;10.50;99.90
64869;DHT22;51349;52.424;10.840;2024-02-15T01:25:03;10.50;99.90
64869;DHT22;51349;52.424;10.840;2024-02-15T01:30:05;10.50;99.90
64869;DHT22;51349;52.424;10.840;2024-02-15T01:35:06;10.50;99.90
64869;DHT22;51349;52.424;10.840;2024-02-15T01:40:08;10.60;99.90
64869;DHT22;51349;52.424;10.840;2024-02-15T01:45:13;10.60;99.90
64869;DHT22;51349;52.424;10.840;2024-02-15T01:50:13;10.60;99.90
64869;DHT22;51349;52.424;10.840;2024-02-15T01:55:17;10.60;99.90
64869;DHT22;51349;52.424;10.840;2024-02-15T02:00:19;10.60;99.90
64869;DHT22;51349;52.424;10.840;2024-02-15T02:05:20;10.70;99.90
64869;DHT22;51349;52.424;10.840;2024-02-15T02:10:20;10.60;99.90
64869;DHT22;51349;52.424;10.840;2024-02-15T02:15:21;10.70;99.90
64869;DHT22;51349;52.424;10.840;2024-02-15T02:20:22;10.70;99.90
64869;DHT22;51349;52.424;10.840;2024-02-15T02:25:24;10.70;99.90
64869;DHT22;51349;52.424;10.840;2024-02-15T02:30:28;10.70;99.90
64869;DHT22;51349;52.424;10.840;2024-02-15T02:35:32;10.70;99.90
64869;DHT22;51349;52.424;10.840;2024-02-15T02:40:33;10.70;99.90
64869;DHT22;51349;52.424;10.840;2024-02-15T02:45:35;10.70;99.90
64869;DHT22;51349;52.424;10.840;2024-02-15T02:50:36;10.70;99.90
64869;DHT22;51349;52.424;10.840;2024-02-15T02:55:36;10.70;99.90
64869;DHT22;51349;52.424;10.840;2024-02-15T03:00:38;10.70;99.90
64869;DHT22;51349;52.424;10.840;2024-02-15T03:05:39;10.70;99.90
64869;DHT22;51349;52.424;10.840;2024-02-15T03:10:40;10.70;99.90
64869;DHT22;51349;52.424;10.840;2024-02-15T03:15:41;10.60;99.90
64869;DHT22;51349;52.424;10.840;2024-02-15T03:20:42;10.60;99.90
64869;DHT22;51349;52.424;10.840;2024-02-15T03:25:43;10.70;99.90
64869;DHT22;51349;52.424;10.840;2024-02-15T03:30:44;10.70;99.90
64869;DHT22;51349;52.424;10.840;2024-02-15T03:35:46;10.60;99.90
64869;DHT22;51349;52.424;10.840;2024-02-15T03:40:47;10.60;99.90
64869;DHT22;51349;52.424;10.840;2024-02-15T03:45:47;10.70;99.90
64869;DHT22;51349;52.424;10.840;2024-02-15T03:50:48;10.70;99.90
64869;DHT22;51349;52.424;10.840;2024-02-15T03:55:49;10.70;99.90
64869;DHT22;51349;52.424;10.840;2024-02-15T04:00:49;10.70;99.90
64869;DHT22;51349;52.424;10.840;2024-02-15T04:05:50;10.70;99.90
64869;DHT22;51349;52.424;10.840;2024-02-15T04:10:50;10.70;99.90
64869;DHT22;51349;52.424;10.840;2024-02-15T04:15:51;10.70;99.90
64869;DHT22;51349;52.424;10.840;2024-02-15T04:20:53;10.70;99.90
64869;DHT22;51349;52.424;10.840;2024-02-15T04:25:54;10.80;99.90
64869;DHT22;51349;52.424;10.840;2024-02-15T04:30:54;10.80;99.90
64869;DHT22;51349;52.424;10.840;2024-02-15T04:35:55;10.80;99.90
64869;DHT22;51349;52.424;10.840;2024-02-15T04:40:56;10.80;99.90
64869;DHT22;51349;52.424;10.840;2024-02-15T04:45:58;10.80;99.90
64869;DHT22;51349;52.424;10.840;2024-02-15T04:50:59;10.90;99.90
64869;DHT22;51349;52.424;10.840;2024-02-15T04:55:59;10.90;99.90
64869;DHT22;51349;52.424;10.840;2024-02-15T05:01:03;10.90;99.90
64869;DHT22;51349;52.424;10.840;2024-02-15T05:06:05;10.90;99.90
64869;DHT22;51349;52.424;10.840;2024-02-15T05:11:06;10.90;99.90
64869;DHT22;51349;52.424;10.840;2024-02-15T05:16:07;10.90;99.90
64869;DHT22;51349;52.424;10.840;2024-02-15T05:21:08;10.90;99.90
64869;DHT22;51349;52.424;10.840;2024-02-15T05:26:11;10.90;99.90
64869;DHT22;51349;52.424;10.840;2024-02-15T05:31:14;10.80;99.90
64869;DHT22;51349;52.424;10.840;2024-02-15T05:36:19;10.80;99.90
64869;DHT22;51349;52.424;10.840;2024-02-15T05:41:20;10.80;99.90
64869;DHT22;51349;52.424;10.840;2024-02-15T05:46:21;10.90;99.90
64869;DHT22;51349;52.424;10.840;2024-02-15T05:51:22;10.90;99.90
64869;DHT22;51349;52.424;10.840;2024-02-15T05:56:23;10.90;99.90
64869;DHT22;51349;52.424;10.840;2024-02-15T06:01:24;10.90;99.90
64869;DHT22;51349;52.424;10.840;2024-02-15T06:06:25;10.90;99.90
64869;DHT22;51349;52.424;10.840;2024-02-15T06:11:27;10.90;99.90
64869;DHT22;51349;52.424;10.840;2024-02-15T06:16:27;10.80;99.90
64869;DHT22;51349;52.424;10.840;2024-02-15T06:21:28;10.80;99.90
64869;DHT22;51349;52.424;10.840;2024-02-15T06:26:29;10.80;99.90
64869;DHT22;51349;52.424;10.840;2024-02-15T06:31:31;10.90;99.90
64869;DHT22;51349;52.424;10.840;2024-02-15T06:36:53;10.90;99.90
64869;DHT22;51349;52.424;10.840;2024-02-15T06:42:16;10.90;99.90
64869;DHT22;51349;52.424;10.840;2024-02-15T06:47:18;11.00;99.90
64869;DHT22;51349;52.424;10.840;2024-02-15T06:52:20;11.10;99.90
64869;DHT22;51349;52.424;10.840;2024-02-15T06:57:21;11.10;99.90
64869;DHT22;51349;52.424;10.840;2024-02-15T07:02:21;11.20;99.90
64869;DHT22;51349;52.424;10.840;2024-02-15T07:07:23;11.20;99.90
64869;DHT22;51349;52.424;10.840;2024-02-15T07:12:24;11.30;99.90
64869;DHT22;51349;52.424;10.840;2024-02-15T07:17:25;11.20;99.90
64869;DHT22;51349;52.424;10.840;2024-02-15T07:22:25;11.20;99.90
64869;DHT22;51349;52.424;10.840;2024-02-15T07:27:26;11.30;99.90
64869;DHT22;51349;52.424;10.840;2024-02-15T07:32:27;11.30;99.90
64869;DHT22;51349;52.424;10.840;2024-02-15T07:37:27;11.30;99.90
64869;DHT22;51349;52.424;10.840;2024-02-15T07:42:29;11.30;99.90
64869;DHT22;51349;52.424;10.840;2024-02-15T07:47:30;11.30;99.90
64869;DHT22;51349;52.424;10.840;2024-02-15T07:52:31;11.30;99.90
64869;DHT22;51349;52.424;10.840;2024-02-15T07:57:33;11.30;99.90
64869;DHT22;51349;52.424;10.840;2024-02-15T08:02:35;11.40;99.90
64869;DHT22;51349;52.424;10.840;2024-02-15T08:07:41;11.40;99.90
64869;DHT22;51349;52.424;10.840;2024-02-15T08:12:43;11.50;99.90
64869;DHT22;51349;52.424;10.840;2024-02-15T08:17:45;11.50;99.90
64869;DHT22;51349;52.424;10.840;2024-02-15T08:22:48;11.50;99.90
64869;DHT22;51349;52.424;10.840;2024-02-15T08:27:49;11.50;99.90
64869;DHT22;51349;52.424;10.840;2024-02-15T08:32:50;11.50;99.90
64869;DHT22;51349;52.424;10.840;2024-02-15T08:37:52;11.60;99.90
64869;DHT22;51349;52.424;10.840;2024-02-15T08:42:53;11.70;99.90
64869;DHT22;51349;52.424;10.840;2024-02-15T08:47:54;11.70;99.90
64869;DHT22;51349;52.424;10.840;2024-02-15T08:52:54;11.70;99.90
64869;DHT22;51349;52.424;10.840;2024-02-15T08:57:56;11.80;99.90
64869;DHT22;51349;52.424;10.840;2024-02-15T09:02:58;11.80;99.90
64869;DHT22;51349;52.424;10.840;2024-02-15T09:07:59;11.80;99.90
64869;DHT22;51349;52.424;10.840;2024-02-15T09:13:00;11.90;99.90
64869;DHT22;51349;52.424;10.840;2024-02-15T09:18:01;11.90;99.90
64869;DHT22;51349;52.424;10.840;2024-02-15T09:23:02;12.00;99.90
64869;DHT22;51349;52.424;10.840;2024-02-15T09:28:07;12.20;99.90
64869;DHT22;51349;52.424;10.840;2024-02-15T09:33:08;12.40;99.90
64869;DHT22;51349;52.424;10.840;2024-02-15T09:38:09;12.40;99.90
64869;DHT22;51349;52.424;10.840;2024-02-15T09:43:10;12.40;99.90
64869;DHT22;51349;52.424;10.840;2024-02-15T09:48:15;12.50;99.90
64869;DHT22;51349;52.424;10.840;2024-02-15T09:53:21;12.50;99.90
64869;DHT22;51349;52.424;10.840;2024-02-15T09:58:26;12.60;99.90
64869;DHT22;51349;52.424;10.840;2024-02-15T10:03:27;12.70;99.90
64869;DHT22;51349;52.424;10.840;2024-02-15T10:08:31;12.90;99.90
64869;DHT22;51349;52.424;10.840;2024-02-15T10:13:32;13.10;99.90
64869;DHT22;51349;52.424;10.840;2024-02-15T10:18:33;13.30;99.90
64869;DHT22;51349;52.424;10.840;2024-02-15T10:23:34;13.50;99.90
64869;DHT22;51349;52.424;10.840;2024-02-15T10:28:35;13.60;99.90
64869;DHT22;51349;52.424;10.840;2024-02-15T10:33:36;13.90;99.90
64869;DHT22;51349;52.424;10.840;2024-02-15T10:38:37;13.80;99.90
64869;DHT22;51349;52.424;10.840;2024-02-15T10:43:37;13.70;99.90
64869;DHT22;51349;52.424;10.840;2024-02-15T10:48:39;13.70;99.90
64869;DHT22;51349;52.424;10.840;2024-02-15T10:53:47;13.80;99.90
64869;DHT22;51349;52.424;10.840;2024-02-15T10:58:59;13.90;99.90
64869;DHT22;51349;52.424;10.840;2024-02-15T11:04:07;13.90;99.90
64869;DHT22;51349;52.424;10.840;2024-02-15T11:09:10;13.90;99.90
64869;DHT22;51349;52.424;10.840;2024-02-15T11:14:28;13.90;99.90
64869;DHT22;51349;52.424;10.840;2024-02-15T11:24:37;13.90;99.90
64869;DHT22;51349;52.424;10.840;2024-02-15T11:30:00;13.90;99.90
64869;DHT22;51349;52.424;10.840;2024-02-15T11:35:11;13.90;99.90
64869;DHT22;51349;52.424;10.840;2024-02-15T11:40:24;13.90;99.90
64869;DHT22;51349;52.424;10.840;2024-02-15T11:45:29;14.00;99.90
64869;DHT22;51349;52.424;10.840;2024-02-15T11:50:41;14.10;99.90
64869;DHT22;51349;52.424;10.840;2024-02-15T11:55:42;14.30;99.90
64869;DHT22;51349;52.424;10.840;2024-02-15T12:00:43;14.40;99.90
64869;DHT22;51349;52.424;10.840;2024-02-15T12:06:02;14.40;99.90
64869;DHT22;51349;52.424;10.840;2024-02-15T12:11:21;14.40;99.90
64869;DHT22;51349;52.424;10.840;2024-02-15T12:16:41;14.40;99.90
64869;DHT22;51349;52.424;10.840;2024-02-15T12:22:00;14.30;99.90
64869;DHT22;51349;52.424;10.840;2024-02-15T12:27:02;14.20;99.90
64869;DHT22;51349;52.424;10.840;2024-02-15T12:32:03;14.10;99.90
64869;DHT22;51349;52.424;10.840;2024-02-15T12:37:05;14.00;99.90
64869;DHT22;51349;52.424;10.840;2024-02-15T12:42:09;14.00;99.90
64869;DHT22;51349;52.424;10.840;2024-02-15T12:47:10;13.80;99.90
64869;DHT22;51349;52.424;10.840;2024-02-15T12:52:36;13.70;99.90
64869;DHT22;51349;52.424;10.840;2024-02-15T12:57:37;13.50;99.90
64869;DHT22;51349;52.424;10.840;2024-02-15T13:02:40;13.40;99.90
64869;DHT22;51349;52.424;10.840;2024-02-15T13:07:41;13.20;99.90
64869;DHT22;51349;52.424;10.840;2024-02-15T13:12:46;13.20;99.90
64869;DHT22;51349;52.424;10.840;2024-02-15T13:17:50;13.30;99.90
64869;DHT22;51349;52.424;10.840;2024-02-15T13:22:53;13.30;99.90
64869;DHT22;51349;52.424;10.840;2024-02-15T13:27:57;13.30;99.90
64869;DHT22;51349;52.424;10.840;2024-02-15T13:32:58;13.30;99.90
64869;DHT22;51349;52.424;10.840;2024-02-15T13:37:59;13.30;99.90
64869;DHT22;51349;52.424;10.840;2024-02-15T13:43:01;13.30;99.90
64869;DHT22;51349;52.424;10.840;2024-02-15T13:48:05;13.20;99.90
64869;DHT22;51349;52.424;10.840;2024-02-15T13:53:07;13.30;99.90
64869;DHT22;51349;52.424;10.840;2024-02-15T13:58:09;13.40;99.90
64869;DHT22;51349;52.424;10.840;2024-02-15T14:03:12;13.50;99.90
64869;DHT22;51349;52.424;10.840;2024-02-15T14:08:15;13.50;99.90
64869;DHT22;51349;52.424;10.840;2024-02-15T14:13:16;13.50;99.90
64869;DHT22;51349;52.424;10.840;2024-02-15T14:18:18;13.50;99.90
64869;DHT22;51349;52.424;10.840;2024-02-15T14:23:19;13.50;99.90
64869;DHT22;51349;52.424;10.840;2024-02-15T14:28:20;13.40;99.90
64869;DHT22;51349;52.424;10.840;2024-02-15T14:33:20;13.40;99.90
64869;DHT22;51349;52.424;10.840;2024-02-15T14:38:23;13.30;99.90
64869;DHT22;51349;52.424;10.840;2024-02-15T14:43:24;13.40;99.90
64869;DHT22;51349;52.424;10.840;2024-02-15T14:48:25;13.40;99.90
64869;DHT22;51349;52.424;10.840;2024-02-15T14:53:26;13.40;99.90
64869;DHT22;51349;52.424;10.840;2024-02-15T14:58:33;13.40;99.90
64869;DHT22;51349;52.424;10.840;2024-02-15T15:03:35;13.40;99.90
64869;DHT22;51349;52.424;10.840;2024-02-15T15:08:38;13.40;99.90
64869;DHT22;51349;52.424;10.840;2024-02-15T15:13:57;13.40;99.90
64869;DHT22;51349;52.424;10.840;2024-02-15T15:18:58;13.40;99.90
64869;DHT22;51349;52.424;10.840;2024-02-15T15:23:59;13.30;99.90
64869;DHT22;51349;52.424;10.840;2024-02-15T15:28:59;13.30;99.90
64869;DHT22;51349;52.424;10.840;2024-02-15T15:34:00;13.30;99.90
64869;DHT22;51349;52.424;10.840;2024-02-15T15:39:01;13.30;99.90
64869;DHT22;51349;52.424;10.840;2024-02-15T15:44:08;13.30;99.90
64869;DHT22;51349;52.424;10.840;2024-02-15T15:49:09;13.30;99.90
64869;DHT22;51349;52.424;10.840;2024-02-15T15:54:10;13.20;99.90
64869;DHT22;51349;52.424;10.840;2024-02-15T15:59:10;13.20;99.90
64869;DHT22;51349;52.424;10.840;2024-02-15T16:04:11;13.10;99.90
64869;DHT22;51349;52.424;10.840;2024-02-15T16:09:12;13.10;99.90
64869;DHT22;51349;52.424;10.840;2024-02-15T16:14:12;13.00;99.90
64869;DHT22;51349;52.424;10.840;2024-02-15T16:19:13;13.00;99.90
64869;DHT22;51349;52.424;10.840;2024-02-15T16:24:14;12.80;99.90
64869;DHT22;51349;52.424;10.840;2024-02-15T16:29:14;12.80;99.90
64869;DHT22;51349;52.424;10.840;2024-02-15T16:34:16;12.80;99.90
64869;DHT22;51349;52.424;10.840;2024-02-15T16:39:17;12.70;99.90
64869;DHT22;51349;52.424;10.840;2024-02-15T16:44:20;12.70;99.90
64869;DHT22;51349;52.424;10.840;2024-02-15T16:49:21;12.70;99.90
64869;DHT22;51349;52.424;10.840;2024-02-15T16:54:21;12.70;99.90
64869;DHT22;51349;52.424;10.840;2024-02-15T16:59:22;12.60;99.90
64869;DHT22;51349;52.424;10.840;2024-02-15T17:04:23;12.60;99.90
64869;DHT22;51349;52.424;10.840;2024-02-15T17:09:24;12.70;99.90
64869;DHT22;51349;52.424;10.840;2024-02-15T17:14:26;12.80;99.90
64869;DHT22;51349;52.424;10.840;2024-02-15T17:19:27;12.80;99.90
64869;DHT22;51349;52.424;10.840;2024-02-15T17:24:27;12.80;99.90
64869;DHT22;51349;52.424;10.840;2024-02-15T17:29:29;12.80;99.90
64869;DHT22;51349;52.424;10.840;2024-02-15T17:34:30;12.70;99.90
64869;DHT22;51349;52.424;10.840;2024-02-15T17:39:31;12.70;99.90
64869;DHT22;51349;52.424;10.840;2024-02-15T17:44:32;12.80;99.90
64869;DHT22;51349;52.424;10.840;2024-02-15T17:49:33;12.80;99.90
64869;DHT22;51349;52.424;10.840;2024-02-15T17:54:34;12.70;99.90
64869;DHT22;51349;52.424;10.840;2024-02-15T17:59:35;12.80;99.90
64869;DHT22;51349;52.424;10.840;2024-02-15T18:04:35;12.80;99.90
64869;DHT22;51349;52.424;10.840;2024-02-15T18:09:36;12.80;99.90
64869;DHT22;51349;52.424;10.840;2024-02-15T18:14:37;12.80;99.90
64869;DHT22;51349;52.424;10.840;2024-02-15T18:19:37;12.80;99.90
64869;DHT22;51349;52.424;10.840;2024-02-15T18:24:38;12.80;99.90
64869;DHT22;51349;52.424;10.840;2024-02-15T18:29:39;12.70;99.90
64869;DHT22;51349;52.424;10.840;2024-02-15T18:34:39;12.70;99.90
64869;DHT22;51349;52.424;10.840;2024-02-15T18:39:42;12.60;99.90
64869;DHT22;51349;52.424;10.840;2024-02-15T18:44:43;12.60;99.90
64869;DHT22;51349;52.424;10.840;2024-02-15T18:49:44;12.60;99.90
64869;DHT22;51349;52.424;10.840;2024-02-15T18:54:44;12.60;99.90
64869;DHT22;51349;52.424;10.840;2024-02-15T18:59:45;12.60;99.90
64869;DHT22;51349;52.424;10.840;2024-02-15T19:04:46;12.70;99.90
64869;DHT22;51349;52.424;10.840;2024-02-15T19:09:47;12.60;99.90
64869;DHT22;51349;52.424;10.840;2024-02-15T19:14:47;12.70;99.90
64869;DHT22;51349;52.424;10.840;2024-02-15T19:19:48;12.60;99.90
64869;DHT22;51349;52.424;10.840;2024-02-15T19:24:49;12.60;99.90
64869;DHT22;51349;52.424;10.840;2024-02-15T19:29:51;12.50;99.90
64869;DHT22;51349;52.424;10.840;2024-02-15T19:34:52;12.50;99.90
64869;DHT22;51349;52.424;10.840;2024-02-15T19:39:53;12.50;99.90
64869;DHT22;51349;52.424;10.840;2024-02-15T19:44:54;12.50;99.90
64869;DHT22;51349;52.424;10.840;2024-02-15T19:49:55;12.50;99.90
64869;DHT22;51349;52.424;10.840;2024-02-15T19:54:55;12.50;99.90
64869;DHT22;51349;52.424;10.840;2024-02-15T19:59:57;12.40;99.90
64869;DHT22;51349;52.424;10.840;2024-02-15T20:04:59;12.50;99.90
64869;DHT22;51349;52.424;10.840;2024-02-15T20:09:59;12.50;99.90
64869;DHT22;51349;52.424;10.840;2024-02-15T20:15:00;12.40;99.90
64869;DHT22;51349;52.424;10.840;2024-02-15T20:20:02;12.40;99.90
64869;DHT22;51349;52.424;10.840;2024-02-15T20:25:05;12.30;99.90
64869;DHT22;51349;52.424;10.840;2024-02-15T20:30:06;12.30;99.90
64869;DHT22;51349;52.424;10.840;2024-02-15T20:35:07;12.10;99.90
64869;DHT22;51349;52.424;10.840;2024-02-15T20:40:08;12.00;99.90
64869;DHT22;51349;52.424;10.840;2024-02-15T20:45:09;11.90;99.90
64869;DHT22;51349;52.424;10.840;2024-02-15T20:50:10;11.90;99.90
64869;DHT22;51349;52.424;10.840;2024-02-15T20:55:13;11.80;99.90
64869;DHT22;51349;52.424;10.840;2024-02-15T21:00:14;11.80;99.90
64869;DHT22;51349;52.424;10.840;2024-02-15T21:05:15;11.60;99.90
64869;DHT22;51349;52.424;10.840;2024-02-15T21:10:15;11.60;99.90
64869;DHT22;51349;52.424;10.840;2024-02-15T21:15:16;11.50;99.90
64869;DHT22;51349;52.424;10.840;2024-02-15T21:20:18;11.50;99.90
64869;DHT22;51349;52.424;10.840;2024-02-15T21:25:18;11.50;99.90
64869;DHT22;51349;52.424;10.840;2024-02-15T21:30:19;11.40;99.90
64869;DHT22;51349;52.424;10.840;2024-02-15T21:35:20;11.50;99.90
64869;DHT22;51349;52.424;10.840;2024-02-15T21:40:23;11.40;99.90
64869;DHT22;51349;52.424;10.840;2024-02-15T21:45:24;11.30;99.90
64869;DHT22;51349;52.424;10.840;2024-02-15T21:50:24;11.30;99.90
64869;DHT22;51349;52.424;10.840;2024-02-15T21:55:25;11.20;99.90
64869;DHT22;51349;52.424;10.840;2024-02-15T22:00:26;11.20;99.90
64869;DHT22;51349;52.424;10.840;2024-02-15T22:05:26;11.10;99.90
64869;DHT22;51349;52.424;10.840;2024-02-15T22:10:30;11.00;99.90
64869;DHT22;51349;52.424;10.840;2024-02-15T22:15:30;10.80;99.90
64869;DHT22;51349;52.424;10.840;2024-02-15T22:20:33;10.80;99.90
64869;DHT22;51349;52.424;10.840;2024-02-15T22:25:35;11.00;99.90
64869;DHT22;51349;52.424;10.840;2024-02-15T22:30:37;11.00;99.90
64869;DHT22;51349;52.424;10.840;2024-02-15T22:35:38;11.00;99.90
64869;DHT22;51349;52.424;10.840;2024-02-15T22:40:38;11.00;99.90
64869;DHT22;51349;52.424;10.840;2024-02-15T22:45:40;10.90;99.90
64869;DHT22;51349;52.424;10.840;2024-02-15T22:50:41;10.90;99.90
64869;DHT22;51349;52.424;10.840;2024-02-15T22:55:43;10.90;99.90
64869;DHT22;51349;52.424;10.840;2024-02-15T23:00:44;11.00;99.90
64869;DHT22;51349;52.424;10.840;2024-02-15T23:05:45;10.80;99.90
64869;DHT22;51349;52.424;10.840;2024-02-15T23:10:45;10.80;99.90
64869;DHT22;51349;52.424;10.840;2024-02-15T23:15:46;10.80;99.90
64869;DHT22;51349;52.424;10.840;2024-02-15T23:20:48;10.70;99.90
64869;DHT22;51349;52.424;10.840;2024-02-15T23:25:49;10.60;99.90
64869;DHT22;51349;52.424;10.840;2024-02-15T23:30:49;10.60;99.90
64869;DHT22;51349;52.424;10.840;2024-02-15T23:35:50;10.60;99.90
64869;DHT22;51349;52.424;10.840;2024-02-15T23:41:09;10.60;99.90
64869;DHT22;51349;52.424;10.840;2024-02-15T23:46:10;10.50;99.90
64869;DHT22;51349;52.424;10.840;2024-02-15T23:51:11;10.40;99.90
64869;DHT22;51349;52.424;10.840;2024-02-15T23:56:11;10.30;99.90
